Time;durP1;ratioP1;P1;durP2;ratioP2;P2;SDS_P1;SDS_P2;PMS_P1;PMS_P2;Temp;Humidity;BMP_temperature;BMP_pressure;BME280_temperature;BME280_humidity;BME280_pressure;Samples;Min_cycle;Max_cycle;Signal;HPM_P1;HPM_P2
2022/02/15 00:00:21;;;;;;;;;;;;;;;13.77;43.08;99748.75;4422794;32;19961;-69
2022/02/15 00:02:47;;;;;;;;;;;;;;;13.47;43.65;99749.91;4420126;32;19992;-69
2022/02/15 00:05:12;;;;;;;;;;;;;;;13.59;43.21;99742.44;4424283;32;20016;-70
2022/02/15 00:07:38;;;;;;;;;;;;;;;13.82;43.03;99750.13;4423720;32;19965;-70
2022/02/15 00:10:05;;;;;;;;;;;;;;;13.75;43.20;99739.94;4420768;32;20271;-70
2022/02/15 00:12:31;;;;;;;;;;;;;;;13.48;43.41;99751.50;4423118;32;19966;-70
2022/02/15 00:14:57;;;;;;;;;;;;;;;13.81;42.71;99745.75;4421039;32;20501;-70
2022/02/15 00:17:22;;;;;;;;;;;;;;;13.68;43.12;99748.81;4423721;32;19999;-70
2022/02/15 00:19:47;;;;;;;;;;;;;;;13.52;43.34;99748.47;4422439;32;19965;-70
2022/02/15 00:22:14;;;;;;;;;;;;;;;13.53;43.10;99758.53;4421535;32;20403;-70
2022/02/15 00:24:40;;;;;;;;;;;;;;;13.32;43.45;99754.72;4424348;32;19965;-70
2022/02/15 00:27:08;;;;;;;;;;;;;;;13.19;43.75;99750.59;4418916;32;20026;-70
2022/02/15 00:29:33;;;;;;;;;;;;;;;13.10;43.86;99754.25;4421603;32;20306;-70
2022/02/15 00:31:59;;;;;;;;;;;;;;;13.38;43.33;99741.50;4410625;32;19957;-70
2022/02/15 00:34:24;;;;;;;;;;;;;;;13.23;43.80;99735.00;4421932;32;20593;-70
2022/02/15 00:36:50;;;;;;;;;;;;;;;12.90;44.13;99728.59;4423334;32;19953;-70
2022/02/15 00:39:16;;;;;;;;;;;;;;;12.87;43.90;99740.84;4422975;32;20279;-69
2022/02/15 00:41:44;;;;;;;;;;;;;;;12.75;43.57;99729.75;4421662;32;20407;-70
2022/02/15 00:44:09;;;;;;;;;;;;;;;12.77;43.57;99736.53;4422870;32;19962;-69
2022/02/15 00:46:35;;;;;;;;;;;;;;;12.53;43.33;99740.53;4422839;32;19968;-69
2022/02/15 00:49:00;;;;;;;;;;;;;;;12.27;43.05;99736.53;4420022;32;20330;-69
2022/02/15 00:51:26;;;;;;;;;;;;;;;12.30;42.66;99730.72;4423165;32;20918;-69
2022/02/15 00:53:51;;;;;;;;;;;;;;;12.16;42.63;99736.25;4419998;32;20116;-69
2022/02/15 00:56:18;;;;;;;;;;;;;;;12.10;42.59;99744.56;4424142;32;20003;-69
2022/02/15 00:58:43;;;;;;;;;;;;;;;12.52;41.88;99736.16;4421681;32;19953;-69
2022/02/15 01:01:09;;;;;;;;;;;;;;;12.10;42.56;99731.22;4421248;32;19949;-69
2022/02/15 01:03:35;;;;;;;;;;;;;;;12.30;42.32;99741.25;4420051;32;19993;-69
2022/02/15 01:06:01;;;;;;;;;;;;;;;11.97;42.84;99753.19;4419599;32;20008;-69
2022/02/15 01:08:27;;;;;;;;;;;;;;;12.26;42.66;99744.22;4418420;32;20407;-69
2022/02/15 01:10:52;;;;;;;;;;;;;;;12.04;43.74;99746.47;4422265;32;21096;-69
2022/02/15 01:13:18;;;;;;;;;;;;;;;12.24;43.27;99745.97;4422786;32;19953;-69
2022/02/15 01:15:44;;;;;;;;;;;;;;;12.43;43.04;99753.09;4420384;32;19949;-69
2022/02/15 01:18:10;;;;;;;;;;;;;;;12.38;43.31;99748.09;4421104;32;21043;-69
2022/02/15 01:20:36;;;;;;;;;;;;;;;12.11;44.04;99751.75;4423048;32;19973;-69
2022/02/15 01:23:02;;;;;;;;;;;;;;;12.46;43.50;99755.78;4422693;32;20401;-69
2022/02/15 01:25:28;;;;;;;;;;;;;;;12.53;43.41;99757.47;4421597;32;19961;-69
2022/02/15 01:27:54;;;;;;;;;;;;;;;12.49;43.37;99762.50;4406399;32;20458;-70
2022/02/15 01:30:20;;;;;;;;;;;;;;;12.51;43.52;99762.78;4422376;32;19953;-69
2022/02/15 01:32:46;;;;;;;;;;;;;;;12.70;43.28;99764.31;4423226;32;20413;-69
2022/02/15 01:35:11;;;;;;;;;;;;;;;12.80;43.20;99775.09;4419340;32;20012;-69
2022/02/15 01:37:37;;;;;;;;;;;;;;;12.83;43.11;99773.34;4421476;32;19966;-69
2022/02/15 01:40:02;;;;;;;;;;;;;;;12.84;43.21;99772.06;4423510;32;19964;-69
2022/02/15 01:42:28;;;;;;;;;;;;;;;12.80;43.17;99783.56;4409365;32;20039;-70
2022/02/15 01:44:53;;;;;;;;;;;;;;;12.72;43.67;99770.25;4419625;32;20391;-70
2022/02/15 01:47:27;;;;;;;;;;;;;;;12.80;43.57;99768.66;4423903;32;20012;-70
2022/02/15 01:49:53;;;;;;;;;;;;;;;12.68;43.81;99776.06;4422264;32;20015;-70
2022/02/15 01:52:20;;;;;;;;;;;;;;;12.78;43.97;99780.41;4422757;32;20012;-70
2022/02/15 01:54:47;;;;;;;;;;;;;;;12.78;44.07;99765.50;4419459;32;20016;-69
2022/02/15 01:57:13;;;;;;;;;;;;;;;13.10;43.46;99764.78;4423037;32;19972;-70
2022/02/15 01:59:38;;;;;;;;;;;;;;;13.18;43.55;99761.09;4420464;32;20460;-70
2022/02/15 02:02:04;;;;;;;;;;;;;;;13.07;43.89;99760.84;4419751;32;19981;-70
2022/02/15 02:07:15;;;;;;;;;;;;;;;12.67;45.39;99762.44;4418768;32;20005;-70
2022/02/15 02:09:41;;;;;;;;;;;;;;;12.89;44.95;99762.97;4421736;32;19980;-70
2022/02/15 02:12:07;;;;;;;;;;;;;;;12.75;45.34;99758.00;4421910;32;20009;-70
2022/02/15 02:14:33;;;;;;;;;;;;;;;12.91;44.75;99760.44;4419163;32;20014;-69
2022/02/15 02:16:59;;;;;;;;;;;;;;;12.99;44.56;99761.66;4421458;32;19965;-70
2022/02/15 02:19:24;;;;;;;;;;;;;;;12.89;44.78;99755.25;4422924;32;19972;-70
2022/02/15 02:21:50;;;;;;;;;;;;;;;12.87;45.07;99759.81;4422307;32;20436;-70
2022/02/15 02:24:19;;;;;;;;;;;;;;;13.02;44.63;99766.38;4407928;32;19976;-70
2022/02/15 02:26:45;;;;;;;;;;;;;;;12.93;44.81;99758.72;4422279;32;20220;-70
2022/02/15 02:29:11;;;;;;;;;;;;;;;12.84;45.02;99758.75;4421363;32;20427;-70
2022/02/15 02:31:37;;;;;;;;;;;;;;;13.05;44.64;99752.09;4422640;32;19993;-70
2022/02/15 02:34:02;;;;;;;;;;;;;;;13.00;44.72;99749.91;4418266;32;19986;-70
2022/02/15 02:36:27;;;;;;;;;;;;;;;12.75;45.02;99750.31;4403825;32;20013;-69
2022/02/15 02:38:53;;;;;;;;;;;;;;;12.68;45.32;99738.59;4421032;32;20013;-69
2022/02/15 02:41:18;;;;;;;;;;;;;;;12.72;45.18;99731.50;4420706;32;19953;-68
2022/02/15 02:43:44;;;;;;;;;;;;;;;12.43;45.77;99734.16;4420761;32;19985;-69
2022/02/15 02:46:09;;;;;;;;;;;;;;;12.20;46.16;99736.84;4418997;32;19961;-69
2022/02/15 02:48:35;;;;;;;;;;;;;;;12.20;46.22;99737.66;4421320;32;19994;-69
2022/02/15 02:51:00;;;;;;;;;;;;;;;12.27;45.94;99730.91;4421500;32;19969;-69
2022/02/15 02:53:27;;;;;;;;;;;;;;;12.37;45.90;99729.63;4420097;32;20431;-71
2022/02/15 02:55:53;;;;;;;;;;;;;;;12.32;45.77;99733.06;4407591;32;20060;-70
2022/02/15 02:58:19;;;;;;;;;;;;;;;12.26;45.85;99729.31;4421899;32;19992;-70
2022/02/15 03:00:45;;;;;;;;;;;;;;;12.33;45.70;99726.94;4421519;32;20361;-70
2022/02/15 03:03:10;;;;;;;;;;;;;;;12.22;45.74;99723.06;4419944;32;19964;-69
2022/02/15 03:05:36;;;;;;;;;;;;;;;12.19;45.79;99721.19;4419256;32;20104;-70
2022/02/15 03:08:02;;;;;;;;;;;;;;;12.17;45.07;99710.38;4421841;32;20025;-70
2022/02/15 03:10:28;;;;;;;;;;;;;;;11.82;45.50;99697.94;4420310;32;20377;-70
2022/02/15 03:12:54;;;;;;;;;;;;;;;11.81;45.53;99699.19;4418429;32;19997;-70
2022/02/15 03:15:19;;;;;;;;;;;;;;;11.95;45.42;99688.06;4422799;32;20353;-70
2022/02/15 03:17:44;;;;;;;;;;;;;;;12.11;45.15;99689.72;4423020;32;19988;-70
2022/02/15 03:20:10;;;;;;;;;;;;;;;12.20;44.69;99686.88;4421486;32;19967;-69
2022/02/15 03:22:36;;;;;;;;;;;;;;;12.38;44.33;99689.63;4424774;32;20005;-69
2022/02/15 03:25:02;;;;;;;;;;;;;;;12.43;44.11;99679.75;4420903;32;21457;-69
2022/02/15 03:27:28;;;;;;;;;;;;;;;12.30;44.45;99682.00;4423212;32;19949;-69
2022/02/15 03:29:54;;;;;;;;;;;;;;;12.19;44.61;99684.53;4420920;32;20332;-70
2022/02/15 03:32:19;;;;;;;;;;;;;;;12.34;43.82;99683.41;4423265;32;20218;-70
2022/02/15 03:34:45;;;;;;;;;;;;;;;12.26;43.88;99696.25;4423534;32;20369;-69
2022/02/15 03:37:11;;;;;;;;;;;;;;;12.41;44.13;99702.00;4422768;32;20291;-69
2022/02/15 03:39:36;;;;;;;;;;;;;;;12.60;43.59;99695.03;4422928;32;19960;-69
2022/02/15 03:44:49;;;;;;;;;;;;;;;12.90;42.74;99668.50;4419532;32;19968;-69
2022/02/15 03:47:15;;;;;;;;;;;;;;;13.03;42.40;99660.59;4424214;32;19961;-69
2022/02/15 03:49:41;;;;;;;;;;;;;;;13.07;42.52;99652.75;4421909;32;19975;-69
2022/02/15 03:52:06;;;;;;;;;;;;;;;13.13;42.37;99662.12;4423993;32;19993;-69
2022/02/15 03:54:32;;;;;;;;;;;;;;;13.07;42.21;99659.16;4409304;32;19965;-69
2022/02/15 03:56:59;;;;;;;;;;;;;;;13.06;42.38;99663.25;4421460;32;20090;-69
2022/02/15 03:59:25;;;;;;;;;;;;;;;12.72;43.02;99658.13;4419954;32;20644;-69
2022/02/15 04:01:50;;;;;;;;;;;;;;;12.61;43.19;99642.97;4420670;32;21036;-70
2022/02/15 04:04:16;;;;;;;;;;;;;;;12.43;43.94;99648.72;4419474;32;20433;-70
2022/02/15 04:06:41;;;;;;;;;;;;;;;12.01;44.51;99634.63;4421875;32;19995;-70
2022/02/15 04:09:07;;;;;;;;;;;;;;;11.71;45.20;99630.00;4424927;32;20260;-70
2022/02/15 04:11:32;;;;;;;;;;;;;;;11.87;44.92;99626.81;4421367;32;19953;-69
2022/02/15 04:13:59;;;;;;;;;;;;;;;11.96;44.67;99621.16;4421699;32;20201;-70
2022/02/15 04:16:25;;;;;;;;;;;;;;;11.68;45.22;99633.75;4421712;32;19949;-70
2022/02/15 04:18:52;;;;;;;;;;;;;;;11.76;45.28;99629.38;4422064;32;19997;-70
2022/02/15 04:21:20;;;;;;;;;;;;;;;11.92;45.09;99617.72;4422671;32;20020;-70
2022/02/15 04:23:48;;;;;;;;;;;;;;;11.80;45.18;99615.88;4422587;32;20035;-70
2022/02/15 04:26:15;;;;;;;;;;;;;;;11.88;45.16;99620.72;4421533;32;19972;-70
2022/02/15 04:28:40;;;;;;;;;;;;;;;11.89;45.05;99610.22;4421566;32;20343;-70
2022/02/15 04:31:05;;;;;;;;;;;;;;;11.91;45.31;99608.47;4424256;32;20317;-70
2022/02/15 04:33:31;;;;;;;;;;;;;;;12.10;44.69;99604.34;4425276;32;20000;-70
2022/02/15 04:35:57;;;;;;;;;;;;;;;12.21;44.78;99598.19;4418866;32;19993;-70
2022/02/15 04:38:22;;;;;;;;;;;;;;;12.19;44.87;99586.62;4421799;32;19961;-70
2022/02/15 04:40:47;;;;;;;;;;;;;;;12.27;45.11;99590.63;4424477;32;19993;-70
2022/02/15 04:43:13;;;;;;;;;;;;;;;12.28;45.03;99583.75;4423410;32;19969;-69
2022/02/15 04:45:39;;;;;;;;;;;;;;;12.46;44.68;99580.03;4422727;32;19989;-69
2022/02/15 04:48:04;;;;;;;;;;;;;;;12.75;43.99;99572.47;4406666;32;19962;-70
2022/02/15 04:50:30;;;;;;;;;;;;;;;12.82;43.83;99577.75;4420630;32;19957;-69
2022/02/15 04:52:55;;;;;;;;;;;;;;;12.66;44.15;99571.75;4422021;32;19964;-69
2022/02/15 04:55:21;;;;;;;;;;;;;;;12.65;44.19;99556.09;4422372;32;19957;-69
2022/02/15 04:57:46;;;;;;;;;;;;;;;12.40;44.79;99559.37;4422551;32;20049;-69
2022/02/15 05:00:12;;;;;;;;;;;;;;;12.93;43.67;99557.44;4420175;32;20044;-69
2022/02/15 05:02:38;;;;;;;;;;;;;;;12.91;43.90;99545.84;4409921;32;20602;-69
2022/02/15 05:05:04;;;;;;;;;;;;;;;13.09;43.18;99529.56;4422123;32;20325;-69
2022/02/15 05:07:29;;;;;;;;;;;;;;;12.84;44.03;99529.28;4420017;32;19961;-69
2022/02/15 05:09:55;;;;;;;;;;;;;;;12.66;44.65;99518.13;4422261;32;20319;-69
2022/02/15 05:12:21;;;;;;;;;;;;;;;12.68;43.99;99518.44;4419212;32;19953;-69
2022/02/15 05:14:46;;;;;;;;;;;;;;;12.68;44.83;99515.59;4416002;32;20002;-70
2022/02/15 05:17:12;;;;;;;;;;;;;;;12.64;45.19;99529.13;4416709;32;19997;-70
2022/02/15 05:19:39;;;;;;;;;;;;;;;12.75;44.56;99513.19;4420323;32;20339;-70
2022/02/15 05:22:05;;;;;;;;;;;;;;;12.97;44.37;99507.19;4421196;32;20169;-70
2022/02/15 05:24:32;;;;;;;;;;;;;;;13.11;44.53;99510.09;4419757;32;19957;-70
2022/02/15 05:26:58;;;;;;;;;;;;;;;12.97;44.60;99499.50;4406571;32;20087;-70
2022/02/15 05:29:23;;;;;;;;;;;;;;;13.24;44.67;99490.81;4419324;32;19957;-70
2022/02/15 05:31:49;;;;;;;;;;;;;;;12.95;45.34;99496.38;4420644;32;19957;-70
2022/02/15 05:34:15;;;;;;;;;;;;;;;13.17;44.82;99498.87;4419106;32;20031;-70
2022/02/15 05:36:42;;;;;;;;;;;;;;;13.01;45.12;99502.94;4418447;32;20303;-70
2022/02/15 05:39:07;;;;;;;;;;;;;;;12.91;45.37;99490.16;4422260;32;20035;-70
2022/02/15 05:41:33;;;;;;;;;;;;;;;13.31;44.72;99490.41;4422001;32;19990;-70
2022/02/15 05:43:58;;;;;;;;;;;;;;;13.24;44.90;99479.50;4423319;32;20343;-70
2022/02/15 05:46:24;;;;;;;;;;;;;;;12.98;45.62;99467.16;4422024;32;19961;-70
2022/02/15 05:48:50;;;;;;;;;;;;;;;12.90;45.71;99460.37;4422160;32;20005;-70
2022/02/15 05:51:15;;;;;;;;;;;;;;;12.74;46.20;99449.53;4421358;32;19984;-70
2022/02/15 05:53:41;;;;;;;;;;;;;;;13.04;45.73;99444.72;4420598;32;20288;-70
2022/02/15 05:56:07;;;;;;;;;;;;;;;12.87;46.16;99438.75;4421578;32;19989;-70
2022/02/15 05:58:32;;;;;;;;;;;;;;;12.77;46.64;99428.03;4422630;32;20360;-70
2022/02/15 06:00:58;;;;;;;;;;;;;;;13.15;45.94;99411.00;4423704;32;19969;-70
2022/02/15 06:06:09;;;;;;;;;;;;;;;12.66;46.83;99386.25;4423006;32;19999;-70
2022/02/15 06:08:35;;;;;;;;;;;;;;;12.63;47.10;99384.41;4422272;32;20337;-70
2022/02/15 06:11:02;;;;;;;;;;;;;;;12.39;47.63;99375.22;4420226;32;19964;-70
2022/02/15 06:13:27;;;;;;;;;;;;;;;12.65;47.12;99378.28;4419764;32;20378;-70
2022/02/15 06:15:52;;;;;;;;;;;;;;;12.31;47.79;99371.22;4419571;32;19997;-70
2022/02/15 06:18:22;;;;;;;;;;;;;;;12.39;47.88;99363.94;4418473;32;20042;-70
2022/02/15 06:20:48;;;;;;;;;;;;;;;12.07;48.77;99345.91;4421646;32;19996;-70
2022/02/15 06:23:14;;;;;;;;;;;;;;;12.36;48.12;99350.03;4418688;32;19973;-70
2022/02/15 06:25:39;;;;;;;;;;;;;;;12.60;47.62;99343.03;4411810;32;19953;-70
2022/02/15 06:28:05;;;;;;;;;;;;;;;12.62;47.63;99343.34;4418800;32;20019;-70
2022/02/15 06:30:31;;;;;;;;;;;;;;;12.73;47.86;99328.66;4422212;32;20330;-70
2022/02/15 06:32:57;;;;;;;;;;;;;;;12.86;47.75;99327.06;4422026;32;19989;-70
2022/02/15 06:35:22;;;;;;;;;;;;;;;12.63;47.86;99324.34;4420485;32;19979;-70
2022/02/15 06:37:51;;;;;;;;;;;;;;;13.04;47.72;99321.22;4420792;32;20382;-70
2022/02/15 06:40:17;;;;;;;;;;;;;;;13.03;47.19;99307.59;4420307;32;20028;-69
2022/02/15 06:42:43;;;;;;;;;;;;;;;13.15;47.31;99298.81;4422963;32;19981;-69
2022/02/15 06:45:09;;;;;;;;;;;;;;;13.52;46.76;99304.75;4420179;32;20005;-70
2022/02/15 06:47:35;;;;;;;;;;;;;;;13.59;47.16;99302.28;4417769;32;20001;-70
2022/02/15 06:50:01;;;;;;;;;;;;;;;13.55;47.49;99303.75;4427349;32;20003;-70
2022/02/15 06:52:27;;;;;;;;;;;;;;;13.28;47.98;99287.97;4424309;32;20012;-70
2022/02/15 06:54:52;;;;;;;;;;;;;;;13.06;48.59;99284.81;4420870;32;20351;-70
2022/02/15 06:57:18;;;;;;;;;;;;;;;13.25;48.81;99269.19;4421672;32;19988;-70
2022/02/15 06:59:44;;;;;;;;;;;;;;;13.59;48.03;99259.09;4425186;32;20000;-70
2022/02/15 07:02:10;;;;;;;;;;;;;;;13.35;48.61;99256.47;4421003;32;20448;-70
2022/02/15 07:04:36;;;;;;;;;;;;;;;13.35;48.44;99248.00;4423653;32;20055;-69
2022/02/15 07:07:01;;;;;;;;;;;;;;;13.48;48.67;99239.97;4422926;32;19972;-69
2022/02/15 07:09:27;;;;;;;;;;;;;;;13.59;48.25;99237.28;4424461;32;20001;-69
2022/02/15 07:11:52;;;;;;;;;;;;;;;13.47;48.65;99235.56;4419935;32;20268;-69
2022/02/15 07:14:17;;;;;;;;;;;;;;;13.82;47.96;99236.28;4421722;32;19945;-69
2022/02/15 07:16:44;;;;;;;;;;;;;;;13.97;47.81;99245.41;4419935;32;20045;-69
2022/02/15 07:19:10;;;;;;;;;;;;;;;13.78;48.08;99238.53;4423173;32;20031;-69
2022/02/15 07:21:37;;;;;;;;;;;;;;;13.76;48.18;99229.78;4422483;32;20493;-69
2022/02/15 07:24:02;;;;;;;;;;;;;;;13.45;48.93;99223.22;4424141;32;20012;-69
2022/02/15 07:26:29;;;;;;;;;;;;;;;13.58;48.75;99226.47;4424005;32;20981;-69
2022/02/15 07:28:55;;;;;;;;;;;;;;;13.61;49.08;99211.34;4422061;32;20001;-69
2022/02/15 07:31:21;;;;;;;;;;;;;;;13.55;49.29;99199.19;4424142;32;20011;-69
2022/02/15 07:33:46;;;;;;;;;;;;;;;13.43;49.61;99211.62;4421162;32;20034;-69
2022/02/15 07:36:12;;;;;;;;;;;;;;;13.75;48.84;99193.53;4421059;32;19957;-69
2022/02/15 07:38:38;;;;;;;;;;;;;;;13.93;48.55;99187.56;4424886;32;19997;-69
2022/02/15 07:41:03;;;;;;;;;;;;;;;13.95;48.82;99174.47;4424144;32;19996;-69
2022/02/15 07:43:29;;;;;;;;;;;;;;;14.06;48.66;99173.78;4424851;32;20264;-69
2022/02/15 07:45:54;;;;;;;;;;;;;;;14.04;48.57;99182.78;4422451;32;20007;-69
2022/02/15 07:48:20;;;;;;;;;;;;;;;14.02;48.92;99181.69;4423673;32;20374;-69
2022/02/15 07:50:46;;;;;;;;;;;;;;;13.87;49.53;99183.88;4425052;32;19996;-69
2022/02/15 07:53:11;;;;;;;;;;;;;;;13.99;49.46;99202.50;4423739;32;19961;-69
2022/02/15 07:55:37;;;;;;;;;;;;;;;13.79;50.21;99194.84;4422788;32;19975;-69
2022/02/15 07:58:02;;;;;;;;;;;;;;;13.74;50.83;99195.56;4421243;32;20294;-69
2022/02/15 08:00:28;;;;;;;;;;;;;;;13.68;51.15;99188.28;4408504;32;19980;-69
2022/02/15 08:02:54;;;;;;;;;;;;;;;13.57;51.52;99180.44;4422696;32;20016;-69
2022/02/15 08:05:20;;;;;;;;;;;;;;;13.48;52.42;99177.81;4422464;32;19958;-70
2022/02/15 08:07:46;;;;;;;;;;;;;;;13.67;52.04;99183.91;4421503;32;20356;-70
2022/02/15 08:10:13;;;;;;;;;;;;;;;13.75;52.23;99187.88;4425101;32;19989;-70
2022/02/15 08:12:40;;;;;;;;;;;;;;;13.73;52.59;99181.94;4423612;32;19961;-70
2022/02/15 08:15:06;;;;;;;;;;;;;;;13.48;53.41;99169.31;4423493;32;20031;-70
2022/02/15 08:17:31;;;;;;;;;;;;;;;13.17;54.51;99165.59;4419801;32;20358;-70
2022/02/15 08:19:57;;;;;;;;;;;;;;;13.38;54.73;99159.44;4421772;32;20506;-70
2022/02/15 08:22:24;;;;;;;;;;;;;;;13.46;54.37;99166.22;4417798;32;19976;-71
2022/02/15 08:24:49;;;;;;;;;;;;;;;13.25;55.16;99167.50;4423037;32;19988;-71
2022/02/15 08:27:15;;;;;;;;;;;;;;;13.34;55.15;99155.25;4422720;32;20390;-71
2022/02/15 08:29:40;;;;;;;;;;;;;;;13.08;55.90;99151.59;4422709;32;20015;-71
2022/02/15 08:32:06;;;;;;;;;;;;;;;13.41;55.26;99154.84;4410153;32;19976;-71
2022/02/15 08:34:33;;;;;;;;;;;;;;;13.16;56.03;99156.31;4420883;32;19976;-71
2022/02/15 08:36:59;;;;;;;;;;;;;;;13.26;55.92;99152.09;4421858;32;20022;-70
2022/02/15 08:39:25;;;;;;;;;;;;;;;13.66;55.20;99163.34;4423436;32;20162;-70
2022/02/15 08:41:51;;;;;;;;;;;;;;;13.59;55.34;99149.66;4421469;32;20484;-69
2022/02/15 08:44:17;;;;;;;;;;;;;;;13.62;55.46;99147.87;4420704;32;20421;-70
2022/02/15 08:46:43;;;;;;;;;;;;;;;13.59;55.56;99154.53;4420399;32;19983;-70
2022/02/15 08:49:09;;;;;;;;;;;;;;;13.70;55.25;99135.66;4421998;32;20347;-70
2022/02/15 08:51:37;;;;;;;;;;;;;;;13.43;55.79;99136.12;4423247;32;19992;-69
2022/02/15 08:54:03;;;;;;;;;;;;;;;13.34;56.01;99132.66;4417548;32;19979;-69
2022/02/15 08:56:28;;;;;;;;;;;;;;;13.45;55.79;99116.63;4422873;32;20005;-69
2022/02/15 08:58:54;;;;;;;;;;;;;;;13.58;55.64;99114.19;4422740;32;20014;-70
2022/02/15 09:01:20;;;;;;;;;;;;;;;13.59;55.51;99098.78;4418266;32;20843;-70
2022/02/15 09:03:46;;;;;;;;;;;;;;;13.41;56.26;99093.44;4403629;32;20004;-70
2022/02/15 09:06:11;;;;;;;;;;;;;;;13.59;55.66;99087.47;4423633;32;20665;-70
2022/02/15 09:08:37;;;;;;;;;;;;;;;13.71;55.77;99080.66;4418534;32;20004;-70
2022/02/15 09:11:02;;;;;;;;;;;;;;;13.74;55.45;99088.13;4417597;32;19992;-70
2022/02/15 09:13:28;;;;;;;;;;;;;;;13.80;55.18;99065.56;4408728;32;20041;-69
2022/02/15 09:15:53;;;;;;;;;;;;;;;13.70;55.54;99076.28;4419680;32;19957;-69
2022/02/15 09:18:19;;;;;;;;;;;;;;;13.88;55.53;99075.94;4419463;32;19958;-70
2022/02/15 09:20:44;;;;;;;;;;;;;;;13.77;56.06;99069.41;4419664;32;20004;-68
2022/02/15 09:23:10;;;;;;;;;;;;;;;14.06;55.30;99057.81;4418614;32;20952;-69
2022/02/15 09:25:36;;;;;;;;;;;;;;;14.20;54.95;99050.47;4422609;32;19957;-70
2022/02/15 09:28:02;;;;;;;;;;;;;;;14.07;54.87;99062.97;4421318;32;19992;-70
2022/02/15 09:30:27;;;;;;;;;;;;;;;13.97;55.03;99052.34;4422230;32;19985;-70
2022/02/15 09:32:53;;;;;;;;;;;;;;;14.01;55.18;99048.03;4421591;32;19957;-70
2022/02/15 09:35:19;;;;;;;;;;;;;;;13.84;55.33;99035.78;4420650;32;20012;-70
2022/02/15 09:37:44;;;;;;;;;;;;;;;13.76;55.55;99057.31;4422492;32;19997;-70
2022/02/15 09:40:10;;;;;;;;;;;;;;;13.80;55.57;99038.06;4419816;32;20035;-70
2022/02/15 09:42:37;;;;;;;;;;;;;;;13.99;55.23;99038.47;4419562;32;19993;-70
2022/02/15 09:45:04;;;;;;;;;;;;;;;14.02;54.98;99054.44;4418860;32;19953;-70
2022/02/15 09:47:32;;;;;;;;;;;;;;;14.07;54.93;99073.50;4423624;32;19997;-69
2022/02/15 09:49:59;;;;;;;;;;;;;;;14.02;55.14;99065.75;4422280;32;20015;-70
2022/02/15 09:52:24;;;;;;;;;;;;;;;14.08;55.07;99058.09;4421480;32;20024;-70
2022/02/15 09:54:52;;;;;;;;;;;;;;;14.57;54.05;99077.47;4419929;32;19961;-70
2022/02/15 09:57:18;;;;;;;;;;;;;;;14.30;54.59;99069.59;4419850;32;19992;-69
2022/02/15 09:59:46;;;;;;;;;;;;;;;14.60;53.99;99079.31;4423283;32;19970;-70
2022/02/15 10:02:14;;;;;;;;;;;;;;;14.37;53.98;99074.81;4421861;32;19961;-70
2022/02/15 10:04:40;;;;;;;;;;;;;;;14.73;53.38;99084.53;4419357;32;20037;-70
2022/02/15 10:07:07;;;;;;;;;;;;;;;14.74;53.40;99103.84;4418872;32;19953;-70
2022/02/15 10:09:34;;;;;;;;;;;;;;;14.53;53.38;99118.63;4419783;32;19961;-71
2022/02/15 10:12:08;;;;;;;;;;;;;;;15.14;52.29;99114.09;4422013;32;20002;-70
2022/02/15 10:14:35;;;;;;;;;;;;;;;15.31;51.96;99112.84;4416471;32;19957;-70
2022/02/15 10:17:01;;;;;;;;;;;;;;;15.51;51.48;99111.91;4420951;32;20040;-70
2022/02/15 10:19:27;;;;;;;;;;;;;;;15.42;51.03;99121.44;4421032;32;20310;-70
2022/02/15 10:21:55;;;;;;;;;;;;;;;15.45;50.81;99117.59;4423097;32;19953;-70
2022/02/15 10:24:21;;;;;;;;;;;;;;;15.78;50.20;99129.00;4422953;32;20265;-70
2022/02/15 10:29:32;;;;;;;;;;;;;;;16.81;48.92;99103.19;3949174;32;15841552;-71
2022/02/15 10:31:59;;;;;;;;;;;;;;;16.75;48.17;99104.50;4427674;32;20220;-71
2022/02/15 10:34:25;;;;;;;;;;;;;;;16.84;47.58;99099.31;4426016;32;20360;-71
2022/02/15 10:36:53;;;;;;;;;;;;;;;16.97;47.45;99108.03;4425788;32;20008;-71
2022/02/15 10:39:18;;;;;;;;;;;;;;;16.88;47.61;99110.41;4427495;32;20319;-71
2022/02/15 10:41:44;;;;;;;;;;;;;;;17.04;46.94;99112.44;4426602;32;20033;-71
2022/02/15 10:44:11;;;;;;;;;;;;;;;17.31;47.30;99120.84;4424727;32;20042;-71
2022/02/15 10:46:39;;;;;;;;;;;;;;;17.33;46.95;99106.88;4430965;32;19993;-71
2022/02/15 10:49:04;;;;;;;;;;;;;;;17.22;46.88;99117.53;4425182;32;19969;-71
2022/02/15 10:51:30;;;;;;;;;;;;;;;17.39;46.20;99106.84;4425440;32;19976;-71
2022/02/15 10:53:56;;;;;;;;;;;;;;;17.52;45.96;99110.69;4427017;32;19966;-71
2022/02/15 10:56:21;;;;;;;;;;;;;;;17.56;46.11;99116.09;4425874;32;20001;-71
2022/02/15 10:58:51;;;;;;;;;;;;;;;17.79;45.99;99114.66;4428901;32;19992;-71
2022/02/15 11:01:20;;;;;;;;;;;;;;;17.71;45.99;99114.44;4427913;32;20381;-71
2022/02/15 11:03:46;;;;;;;;;;;;;;;18.01;45.70;99108.06;4429258;32;19977;-71
2022/02/15 11:06:11;;;;;;;;;;;;;;;17.66;46.10;99120.97;4426005;32;19997;-71
2022/02/15 11:08:39;;;;;;;;;;;;;;;17.86;45.54;99120.56;4427050;32;19957;-71
2022/02/15 11:11:22;;;;;;;;;;;;;;;17.79;45.42;99135.38;4429214;32;20072;-71
2022/02/15 11:13:48;;;;;;;;;;;;;;;17.74;45.83;99124.78;4426592;32;19958;-71
2022/02/15 11:16:14;;;;;;;;;;;;;;;17.86;45.24;99143.34;4423357;32;20280;-71
2022/02/15 11:18:40;;;;;;;;;;;;;;;17.95;44.95;99142.25;4426627;32;20005;-71
2022/02/15 11:21:07;;;;;;;;;;;;;;;17.89;44.73;99144.38;4427028;32;19953;-71
2022/02/15 11:23:34;;;;;;;;;;;;;;;17.86;44.32;99143.34;4426199;32;19993;-71
2022/02/15 11:26:02;;;;;;;;;;;;;;;17.95;44.36;99136.56;4427360;32;19985;-71
2022/02/15 11:28:28;;;;;;;;;;;;;;;17.60;43.98;99145.81;4427799;32;20021;-71
2022/02/15 11:30:55;;;;;;;;;;;;;;;17.82;43.63;99142.06;4427085;32;19965;-71
2022/02/15 11:38:31;;;;;;;;;;;;;;;18.29;41.19;99157.81;3937993;32;15727542;-71
2022/02/15 11:43:33;;;;;;;;;;;;;;;17.72;41.19;99153.00;3952249;32;15731197;-71
2022/02/15 11:45:59;;;;;;;;;;;;;;;17.72;41.19;99153.00;4433969;32;19957;-71
2022/02/15 11:48:45;;;;;;;;;;;;;;;17.96;40.76;99143.78;4422013;32;19993;-71
2022/02/15 11:51:19;;;;;;;;;;;;;;;17.57;40.80;99134.72;4432918;32;20049;-71
2022/02/15 11:53:46;;;;;;;;;;;;;;;17.51;40.57;99148.19;4432617;32;19977;-71
2022/02/15 11:56:14;;;;;;;;;;;;;;;17.82;39.97;99144.91;4436528;32;20425;-71
2022/02/15 11:58:47;;;;;;;;;;;;;;;17.95;39.85;99147.16;4432367;32;20340;-71
2022/02/15 12:01:21;;;;;;;;;;;;;;;18.28;38.43;99149.78;4431770;32;20349;-70
2022/02/15 12:03:49;;;;;;;;;;;;;;;17.71;38.50;99157.13;4434549;32;20060;-70
2022/02/15 12:06:15;;;;;;;;;;;;;;;17.71;38.14;99171.34;4434038;32;20315;-70
2022/02/15 12:08:41;;;;;;;;;;;;;;;17.77;38.64;99177.03;4434331;32;20016;-69
2022/02/15 12:11:07;;;;;;;;;;;;;;;17.72;37.76;99169.28;4433680;32;19957;-69
2022/02/15 12:13:34;;;;;;;;;;;;;;;17.65;38.13;99155.63;4433668;32;19972;-70
2022/02/15 12:16:00;;;;;;;;;;;;;;;17.94;37.50;99171.25;4434211;32;19971;-71
2022/02/15 12:18:28;;;;;;;;;;;;;;;18.53;37.45;99174.22;4434183;32;20508;-69
2022/02/15 12:20:56;;;;;;;;;;;;;;;18.12;36.92;99177.06;4434227;32;19986;-70
2022/02/15 12:23:23;;;;;;;;;;;;;;;18.71;36.64;99171.44;4434253;32;20420;-71
2022/02/15 12:25:49;;;;;;;;;;;;;;;18.43;35.93;99167.28;4434255;32;20551;-69
2022/02/15 12:28:22;;;;;;;;;;;;;;;18.20;36.72;99171.59;4432367;32;19997;-69
2022/02/15 12:30:48;;;;;;;;;;;;;;;17.80;35.82;99196.66;4433400;32;19976;-69
2022/02/15 12:33:14;;;;;;;;;;;;;;;17.07;37.47;99176.75;4434323;32;19965;-71
2022/02/15 12:35:39;;;;;;;;;;;;;;;17.81;36.96;99166.91;4425637;32;20357;-70
2022/02/15 12:38:06;;;;;;;;;;;;;;;17.64;36.83;99179.66;4433749;32;20049;-70
2022/02/15 12:40:31;;;;;;;;;;;;;;;17.82;36.22;99171.31;4431635;32;20351;-70
2022/02/15 12:42:57;;;;;;;;;;;;;;;17.98;35.70;99177.44;4433492;32;20383;-70
2022/02/15 12:45:23;;;;;;;;;;;;;;;18.05;35.50;99171.94;4432815;32;20602;-70
2022/02/15 12:47:50;;;;;;;;;;;;;;;17.63;36.28;99170.37;4430761;32;19980;-70
2022/02/15 12:50:17;;;;;;;;;;;;;;;17.68;36.99;99192.31;4432073;32;19993;-70
2022/02/15 12:52:43;;;;;;;;;;;;;;;18.04;36.44;99183.84;4430619;32;20001;-70
2022/02/15 12:55:10;;;;;;;;;;;;;;;18.22;35.83;99183.97;4425030;32;19968;-70
2022/02/15 12:57:38;;;;;;;;;;;;;;;18.02;36.01;99173.00;4423789;32;20042;-70